createdAt,value
2022-11-29T00:01:01.374Z,101501.84
2022-11-29T00:04:03.180Z,101502.69
2022-11-29T00:07:04.624Z,101501.81
2022-11-29T00:10:06.787Z,101501.75
2022-11-29T00:13:08.251Z,101497.41
2022-11-29T00:16:11.342Z,101496.50
2022-11-29T00:19:13.604Z,101498.25
2022-11-29T00:22:15.045Z,101506.03
2022-11-29T00:25:16.629Z,101512.16
2022-11-29T00:28:18.200Z,101514.78
2022-11-29T00:31:37.574Z,101520.94
2022-11-29T00:34:39.028Z,101514.00
2022-11-29T00:37:40.431Z,101508.81
2022-11-29T00:40:41.941Z,101517.56
2022-11-29T00:43:44.107Z,101512.28
2022-11-29T00:46:45.604Z,101517.56
2022-11-29T00:49:47.072Z,101515.81
2022-11-29T00:52:48.731Z,101516.66
2022-11-29T00:55:53.812Z,101513.19
2022-11-29T00:58:55.369Z,101523.63
2022-11-29T01:01:57.044Z,101526.25
2022-11-29T01:04:58.580Z,101521.03
2022-11-29T01:08:00.263Z,101520.13
2022-11-29T01:11:07.394Z,101531.47
2022-11-29T01:14:10.428Z,101529.72
2022-11-29T01:17:11.895Z,101522.75
2022-11-29T01:20:13.760Z,101529.72
2022-11-29T01:23:15.193Z,101528.81
2022-11-29T01:26:23.617Z,101528.78
2022-11-29T01:29:25.109Z,101526.13
2022-11-29T01:32:26.817Z,101519.19
2022-11-29T01:35:28.289Z,101526.97
2022-11-29T01:38:29.755Z,101531.31
2022-11-29T01:41:33.422Z,101545.25
2022-11-29T01:44:34.848Z,101544.38
2022-11-29T01:47:41.300Z,101542.63
2022-11-29T01:50:43.045Z,101543.44
2022-11-29T01:53:44.598Z,101543.44
2022-11-29T01:56:48.819Z,101546.84
2022-11-29T01:59:52.240Z,101552.97
2022-11-29T02:03:20.247Z,101562.50
2022-11-29T02:06:22.539Z,101562.50
2022-11-29T02:09:24.018Z,101559.88
2022-11-29T02:12:43.709Z,101561.63
2022-11-29T02:16:07.166Z,101563.41
2022-11-29T02:19:45.181Z,101564.31
2022-11-29T02:23:23.219Z,101556.47
2022-11-29T02:26:54.977Z,101563.41
2022-11-29T02:30:34.989Z,101559.03
2022-11-29T02:34:02.888Z,101564.25
2022-11-29T02:37:23.186Z,101571.22
2022-11-29T02:40:55.156Z,101567.78
2022-11-29T02:44:21.504Z,101577.34
2022-11-29T02:47:48.747Z,101580.81
2022-11-29T02:51:06.742Z,101595.63
2022-11-29T02:54:14.178Z,101604.31
2022-11-29T02:57:25.658Z,101600.84
2022-11-29T03:00:28.196Z,101604.31
2022-11-29T03:03:38.843Z,101607.88
2022-11-29T03:07:05.775Z,101613.09
2022-11-29T03:10:28.876Z,101609.72
2022-11-29T03:13:51.390Z,101615.03
2022-11-29T03:17:02.858Z,101616.81
2022-11-29T03:20:37.448Z,101615.97
2022-11-29T03:23:45.624Z,101619.50
2022-11-29T03:26:57.514Z,101623.09
2022-11-29T03:30:01.614Z,101635.34
2022-11-29T03:33:16.936Z,101630.97
2022-11-29T03:36:45.865Z,101627.56
2022-11-29T03:40:01.744Z,101626.72
2022-11-29T03:43:11.136Z,101631.03
2022-11-29T03:46:18.614Z,101624.94
2022-11-29T03:50:09.596Z,101640.63
2022-11-29T03:53:23.635Z,101638.06
2022-11-29T03:56:34.754Z,101638.97
2022-11-29T03:59:59.195Z,101648.56
2022-11-29T04:03:12.787Z,101647.75
2022-11-29T04:06:30.399Z,101659.97
2022-11-29T04:09:51.052Z,101662.63
2022-11-29T04:13:35.996Z,101660.06
2022-11-29T04:17:18.714Z,101660.94
2022-11-29T04:20:44.201Z,101659.25
2022-11-29T04:24:27.155Z,101665.38
2022-11-29T04:27:34.663Z,101656.66
2022-11-29T04:30:55.956Z,101663.69
2022-11-29T04:34:12.425Z,101657.63
2022-11-29T04:37:19.893Z,101656.75
2022-11-29T04:40:40.327Z,101652.44
2022-11-29T04:44:02.167Z,101667.28
2022-11-29T04:47:25.724Z,101674.28
2022-11-29T04:50:36.063Z,101676.94
2022-11-29T04:53:37.464Z,101687.41
2022-11-29T04:56:54.075Z,101684.81
2022-11-29T05:00:19.322Z,101690.91
2022-11-29T05:03:52.546Z,101683.09
2022-11-29T05:07:07.504Z,101689.22
2022-11-29T05:10:37.115Z,101694.47
2022-11-29T05:13:56.882Z,101697.06
2022-11-29T05:17:10.373Z,101697.13
2022-11-29T05:20:38.488Z,101710.22
2022-11-29T05:23:55.106Z,101703.28
2022-11-29T05:27:18.281Z,101710.28
2022-11-29T05:30:25.297Z,101715.63
2022-11-29T05:33:45.059Z,101715.56
2022-11-29T05:37:01.190Z,101719.91
2022-11-29T05:40:21.536Z,101722.53
2022-11-29T05:43:41.045Z,101727.75
2022-11-29T05:46:55.158Z,101738.16
2022-11-29T05:50:20.981Z,101736.44
2022-11-29T05:53:44.055Z,101737.28
2022-11-29T05:57:06.824Z,101743.38
2022-11-29T06:00:11.486Z,101746.03
2022-11-29T06:03:24.611Z,101749.56
2022-11-29T06:06:30.219Z,101756.56
2022-11-29T06:09:45.588Z,101758.34
2022-11-29T06:13:23.219Z,101761.84
2022-11-29T06:17:02.162Z,101775.78
2022-11-29T06:20:26.369Z,101777.53
2022-11-29T06:23:43.051Z,101781.91
2022-11-29T06:27:14.094Z,101795.03
2022-11-29T06:30:22.381Z,101789.81
2022-11-29T06:33:31.266Z,101795.09
2022-11-29T06:36:54.068Z,101797.69
2022-11-29T06:39:55.789Z,101803.78
2022-11-29T06:42:57.211Z,101797.69
2022-11-29T06:46:05.839Z,101807.31
2022-11-29T06:49:29.349Z,101809.94
2022-11-29T06:52:50.999Z,101822.16
2022-11-29T06:55:55.511Z,101821.25
2022-11-29T06:59:14.296Z,101825.66
2022-11-29T07:02:38.070Z,101829.19
2022-11-29T07:05:40.137Z,101830.91
2022-11-29T07:08:42.771Z,101837.91
2022-11-29T07:11:45.826Z,101837.94
2022-11-29T07:14:47.914Z,101839.69
2022-11-29T07:18:14.414Z,101850.13
2022-11-29T07:21:31.663Z,101857.03
2022-11-29T07:24:47.096Z,101856.13
2022-11-29T07:27:54.210Z,101861.34
2022-11-29T07:31:05.105Z,101860.44
2022-11-29T07:34:21.632Z,101873.53
2022-11-29T07:37:50.090Z,101874.44
2022-11-29T07:41:18.044Z,101882.34
2022-11-29T07:44:35.168Z,101886.66
2022-11-29T07:47:36.632Z,101886.75
2022-11-29T07:50:39.155Z,101888.53
2022-11-29T07:53:43.096Z,101892.03
2022-11-29T07:56:44.550Z,101892.09
2022-11-29T07:59:46.135Z,101890.31
2022-11-29T08:02:49.084Z,101894.69
2022-11-29T08:05:50.491Z,101892.09
2022-11-29T08:08:51.952Z,101894.75
2022-11-29T08:11:53.419Z,101901.72
2022-11-29T08:14:54.932Z,101906.13
2022-11-29T08:17:56.442Z,101906.13
2022-11-29T08:20:57.952Z,101903.50
2022-11-29T08:23:59.372Z,101910.50
2022-11-29T08:27:00.865Z,101910.53
2022-11-29T08:30:02.891Z,101916.75
2022-11-29T08:33:04.402Z,101921.13
2022-11-29T08:36:09.892Z,101916.75
2022-11-29T08:39:11.455Z,101922.81
2022-11-29T08:42:12.911Z,101914.16
2022-11-29T08:45:14.319Z,101909.78
2022-11-29T08:48:15.782Z,101930.84
2022-11-29T08:51:17.242Z,101930.88
2022-11-29T08:54:18.731Z,101935.31
2022-11-29T09:00:44.122Z,101943.25
2022-11-29T09:03:46.822Z,101936.28
2022-11-29T09:06:48.224Z,101939.84
2022-11-29T09:09:49.647Z,101943.31
2022-11-29T09:12:51.083Z,101955.56
2022-11-29T09:15:52.599Z,101956.53
2022-11-29T09:18:54.491Z,101961.84
2022-11-29T09:21:55.962Z,101965.22
2022-11-29T09:24:57.407Z,101971.38
2022-11-29T09:27:59.412Z,101977.53
2022-11-29T09:31:05.739Z,101976.69
2022-11-29T09:34:07.296Z,101982.00
2022-11-29T09:37:08.765Z,101985.50
2022-11-29T09:40:23.295Z,101982.13
2022-11-29T09:43:33.770Z,101983.97
2022-11-29T09:46:58.736Z,101980.59
2022-11-29T09:50:19.178Z,101980.56
2022-11-29T09:53:35.811Z,101979.59
2022-11-29T09:56:45.804Z,101991.84
2022-11-29T09:59:52.425Z,101992.75
2022-11-29T10:03:00.974Z,101997.09
2022-11-29T10:06:11.590Z,101997.94
2022-11-29T10:09:30.853Z,101998.09
2022-11-29T10:12:40.946Z,101995.41
2022-11-29T10:15:45.586Z,101991.97
2022-11-29T10:18:58.613Z,102000.75
2022-11-29T10:22:27.775Z,101995.47
2022-11-29T10:25:37.459Z,101995.41
2022-11-29T10:28:42.655Z,102003.19
2022-11-29T10:31:46.324Z,102010.38
2022-11-29T10:34:49.468Z,102013.97
2022-11-29T10:38:22.669Z,102015.72
2022-11-29T10:41:21.935Z,102009.56
2022-11-29T10:44:24.361Z,102011.31
2022-11-29T10:47:26.116Z,102000.97
2022-11-29T10:50:30.935Z,101996.72
2022-11-29T10:53:37.192Z,101991.53
2022-11-29T10:56:39.242Z,101998.59
2022-11-29T10:59:41.137Z,101996.88
2022-11-29T11:02:42.655Z,102001.25
2022-11-29T11:05:59.336Z,101996.91
2022-11-29T11:09:30.125Z,102000.38
2022-11-29T11:12:35.323Z,102008.22
2022-11-29T11:15:37.189Z,101995.94
2022-11-29T11:18:38.697Z,102008.16
2022-11-29T11:21:40.188Z,102014.34
2022-11-29T11:24:44.084Z,102010.03
2022-11-29T11:27:46.282Z,102003.91
2022-11-29T11:31:03.075Z,102000.44
2022-11-29T11:34:24.712Z,102012.72
2022-11-29T11:37:33.384Z,102011.88
2022-11-29T11:40:34.888Z,102012.75
2022-11-29T11:43:37.990Z,102020.59
2022-11-29T11:46:48.228Z,102024.97
2022-11-29T11:49:55.897Z,102022.31
2022-11-29T11:53:05.000Z,102024.97
2022-11-29T11:56:10.254Z,102028.44
2022-11-29T11:59:23.807Z,102031.94
2022-11-29T12:02:40.420Z,102030.25
2022-11-29T12:05:44.922Z,102030.28
2022-11-29T12:08:49.205Z,102026.81
2022-11-29T12:12:02.783Z,102032.06
2022-11-29T12:15:08.483Z,102042.56
2022-11-29T12:18:14.484Z,102039.06
2022-11-29T12:21:21.319Z,102042.50
2022-11-29T12:24:38.938Z,102042.53
2022-11-29T12:27:40.412Z,102045.19
2022-11-29T12:30:50.417Z,102048.69
2022-11-29T12:34:22.169Z,102046.97
2022-11-29T12:37:48.353Z,102052.22
2022-11-29T12:41:19.783Z,102060.97
2022-11-29T12:44:46.035Z,102071.47
2022-11-29T12:48:10.684Z,102069.72
2022-11-29T12:52:09.399Z,102068.88
2022-11-29T12:55:33.941Z,102072.34
2022-11-29T12:59:11.125Z,102081.94
2022-11-29T13:02:21.621Z,102081.88
2022-11-29T13:06:11.951Z,102074.94
2022-11-29T13:09:46.924Z,102074.94
2022-11-29T13:12:53.744Z,102078.41
2022-11-29T13:16:07.922Z,102081.06
2022-11-29T13:19:18.343Z,102072.28
2022-11-29T13:22:39.086Z,102075.84
2022-11-29T13:25:43.960Z,102084.59
2022-11-29T13:28:45.846Z,102081.06
2022-11-29T13:31:47.979Z,102079.28
2022-11-29T13:34:51.794Z,102076.66
2022-11-29T13:38:00.988Z,102077.53
2022-11-29T13:41:16.430Z,102077.53
2022-11-29T13:44:45.792Z,102070.50
2022-11-29T13:47:52.265Z,102071.38
2022-11-29T13:50:54.789Z,102076.63
2022-11-29T13:53:59.461Z,102065.22
2022-11-29T13:57:07.586Z,102068.66
2022-11-29T14:00:27.864Z,102073.06
2022-11-29T14:03:33.355Z,102070.41
2022-11-29T14:06:37.156Z,102079.09
2022-11-29T14:09:48.338Z,102072.06
2022-11-29T14:12:55.850Z,102080.78
2022-11-29T14:16:01.672Z,102083.41
2022-11-29T14:19:09.486Z,102080.88
2022-11-29T14:22:19.242Z,102087.84
2022-11-29T14:25:50.584Z,102088.75
2022-11-29T14:28:47.148Z,102101.84
2022-11-29T14:31:51.280Z,102107.94
2022-11-29T14:35:19.979Z,102099.16
2022-11-29T14:38:31.278Z,102107.84
2022-11-29T14:41:51.155Z,102117.47
2022-11-29T14:44:55.348Z,102119.19
2022-11-29T14:47:57.208Z,102115.66
2022-11-29T14:51:32.291Z,102118.28
2022-11-29T14:54:34.173Z,102110.44
2022-11-29T14:57:47.540Z,102125.28
2022-11-29T15:00:48.947Z,102119.16
2022-11-29T15:03:50.671Z,102123.50
2022-11-29T15:06:55.820Z,102126.13
2022-11-29T15:10:04.002Z,102126.13
2022-11-29T15:13:09.992Z,102125.19
2022-11-29T15:16:56.333Z,102131.28
2022-11-29T15:20:15.069Z,102133.88
2022-11-29T15:23:18.483Z,102133.88
2022-11-29T15:26:20.924Z,102138.25
2022-11-29T15:29:22.856Z,102138.22
2022-11-29T15:32:27.763Z,102139.06
2022-11-29T15:35:29.981Z,102133.75
2022-11-29T15:38:44.931Z,102145.03
2022-11-29T15:41:46.356Z,102137.09
2022-11-29T15:44:48.444Z,102143.16
2022-11-29T15:47:50.235Z,102142.22
2022-11-29T15:51:07.075Z,102137.78
2022-11-29T15:54:13.602Z,102137.78
2022-11-29T15:57:25.152Z,102144.66
2022-11-29T16:00:27.044Z,102139.31
2022-11-29T16:03:32.538Z,102146.19
2022-11-29T16:06:41.064Z,102145.19
2022-11-29T16:09:47.139Z,102148.69
2022-11-29T16:12:50.781Z,102160.88
2022-11-29T16:16:09.029Z,102154.63
2022-11-29T16:19:21.408Z,102151.88
2022-11-29T16:22:23.773Z,102150.13
2022-11-29T16:25:25.367Z,102144.88
2022-11-29T16:28:32.716Z,102149.19
2022-11-29T16:31:38.224Z,102158.63
2022-11-29T16:34:43.305Z,102156.75
2022-11-29T16:37:46.340Z,102153.91
2022-11-29T16:41:04.928Z,102155.53
2022-11-29T16:44:41.713Z,102160.69
2022-11-29T16:47:51.866Z,102155.34
2022-11-29T16:51:12.496Z,102162.28
2022-11-29T16:54:22.774Z,102158.63
2022-11-29T17:04:23.934Z,102161.44
2022-11-29T17:07:29.862Z,102164.66
2022-11-29T17:10:31.330Z,102159.97
2022-11-29T17:13:33.757Z,102170.94
2022-11-29T17:16:35.251Z,102174.94
2022-11-29T17:19:36.810Z,102172.91
2022-11-29T17:22:38.341Z,102183.84
2022-11-29T17:25:39.770Z,102179.25
2022-11-29T17:28:42.448Z,102178.97
2022-11-29T17:31:46.000Z,102188.28
2022-11-29T17:34:48.271Z,102187.19
2022-11-29T17:37:49.845Z,102182.69
2022-11-29T17:40:51.352Z,102194.75
2022-11-29T17:43:55.326Z,102191.19
2022-11-29T17:46:56.763Z,102203.13
2022-11-29T17:49:58.284Z,102200.38
2022-11-29T17:52:59.706Z,102201.16
2022-11-29T17:56:03.508Z,102200.31
2022-11-29T17:59:05.355Z,102203.19
2022-11-29T18:02:06.959Z,102202.78
2022-11-29T18:05:08.789Z,102209.25
2022-11-29T18:08:10.260Z,102210.47
2022-11-29T18:11:12.868Z,102219.50
2022-11-29T18:14:16.497Z,102218.97
2022-11-29T18:17:17.938Z,102214.84
2022-11-29T18:20:19.377Z,102212.41
2022-11-29T18:23:20.825Z,102223.69
2022-11-29T18:26:24.667Z,102226.13
2022-11-29T18:29:26.169Z,102223.44
2022-11-29T18:37:27.554Z,102226.78
2022-11-29T18:40:42.246Z,102235.09
2022-11-29T18:43:44.291Z,102244.53
2022-11-29T18:46:46.464Z,102236.78
2022-11-29T18:49:47.902Z,102241.16
2022-11-29T18:52:49.402Z,102253.28
2022-11-29T18:55:59.971Z,102245.31
2022-11-29T18:59:13.251Z,102247.69
2022-11-29T19:02:14.703Z,102249.13
2022-11-29T19:05:16.138Z,102255.09
2022-11-29T19:08:17.619Z,102254.13
2022-11-29T19:11:24.107Z,102257.75
2022-11-29T19:14:25.589Z,102259.78
2022-11-29T19:17:27.040Z,102260.09
2022-11-29T19:20:28.519Z,102259.56
2022-11-29T19:23:30.029Z,102260.84
2022-11-29T19:26:32.651Z,102260.88
2022-11-29T19:29:39.473Z,102265.97
2022-11-29T19:32:41.387Z,102266.97
2022-11-29T19:35:42.845Z,102257.47
2022-11-29T19:38:48.854Z,102261.00
2022-11-29T19:41:54.510Z,102261.09
2022-11-29T19:45:15.829Z,102256.84
2022-11-29T19:48:17.483Z,102264.78
2022-11-29T19:51:19.985Z,102263.09
2022-11-29T19:54:21.431Z,102260.56
2022-11-29T19:57:22.948Z,102259.81
2022-11-29T20:00:24.438Z,102270.25
2022-11-29T20:03:25.906Z,102273.72
2022-11-29T20:06:28.997Z,102270.31
2022-11-29T20:09:30.469Z,102279.19
2022-11-29T20:12:31.954Z,102273.16
2022-11-29T20:15:33.391Z,102280.22
2022-11-29T20:18:37.222Z,102278.59
2022-11-29T20:21:44.721Z,102290.06
2022-11-29T20:24:46.241Z,102291.94
2022-11-29T20:27:47.643Z,102291.25
2022-11-29T20:30:49.283Z,102292.41
2022-11-29T20:33:53.055Z,102296.72
2022-11-29T20:37:03.192Z,102295.75
2022-11-29T20:40:19.222Z,102300.97
2022-11-29T20:43:29.196Z,102294.03
2022-11-29T20:46:31.116Z,102303.66
2022-11-29T20:49:32.792Z,102299.41
2022-11-29T20:53:01.696Z,102306.44
2022-11-29T20:56:05.186Z,102306.50
2022-11-29T20:59:06.639Z,102310.91
2022-11-29T21:02:08.071Z,102303.91
2022-11-29T21:05:10.044Z,102314.44
2022-11-29T21:08:12.483Z,102304.88
2022-11-29T21:11:14.376Z,102311.88
2022-11-29T21:14:16.147Z,102315.44
2022-11-29T21:17:17.988Z,102311.91
2022-11-29T21:20:25.366Z,102315.44
2022-11-29T21:24:00.523Z,102312.81
2022-11-29T21:27:03.178Z,102313.72
2022-11-29T21:30:13.430Z,102304.16
2022-11-29T21:33:15.077Z,102310.28
2022-11-29T21:36:16.763Z,102302.50
2022-11-29T21:39:18.267Z,102303.41
2022-11-29T21:42:21.752Z,102304.34
2022-11-29T21:45:23.259Z,102298.34
2022-11-29T21:48:24.720Z,102308.88
2022-11-29T21:51:26.170Z,102307.22
2022-11-29T21:54:28.759Z,102310.72
2022-11-29T21:57:30.227Z,102311.66
2022-11-29T22:00:37.178Z,102309.03
2022-11-29T22:03:40.090Z,102305.50
2022-11-29T22:06:41.529Z,102306.44
2022-11-29T22:09:43.073Z,102311.66
2022-11-29T22:12:51.890Z,102310.81
2022-11-29T22:15:54.259Z,102309.09
2022-11-29T22:18:55.822Z,102307.34
2022-11-29T22:22:01.167Z,102315.22
2022-11-29T22:25:02.578Z,102310.91
2022-11-29T22:28:04.061Z,102317.03
2022-11-29T22:31:10.984Z,102317.97
2022-11-29T22:34:13.359Z,102311.88
2022-11-29T22:37:14.867Z,102316.25
2022-11-29T22:40:16.304Z,102317.16
2022-11-29T22:43:17.722Z,102323.34
2022-11-29T22:46:22.443Z,102326.88
2022-11-29T22:49:23.954Z,102329.47
2022-11-29T22:52:27.231Z,102327.66
2022-11-29T22:55:28.692Z,102322.34
2022-11-29T22:58:30.566Z,102326.59
2022-11-29T23:01:34.095Z,102322.81
2022-11-29T23:04:35.520Z,102329.56
2022-11-29T23:07:36.942Z,102332.81
2022-11-29T23:10:38.416Z,102327.13
2022-11-29T23:13:41.967Z,102331.91
2022-11-29T23:16:44.738Z,102329.16
2022-11-29T23:19:46.269Z,102329.13
2022-11-29T23:22:47.695Z,102332.66
2022-11-29T23:25:50.038Z,102328.44
2022-11-29T23:28:51.481Z,102333.00
2022-11-29T23:31:52.932Z,102334.03
2022-11-29T23:34:54.394Z,102335.94
2022-11-29T23:37:55.837Z,102338.72
2022-11-29T23:40:57.237Z,102338.84
2022-11-29T23:43:58.687Z,102340.75
2022-11-29T23:47:00.146Z,102345.22
2022-11-29T23:50:01.609Z,102347.06
2022-11-29T23:53:03.046Z,102348.00
2022-11-29T23:56:11.665Z,102352.44
2022-11-29T23:59:13.137Z,102346.31
